createdAt,value
2022-11-16T00:02:18.731Z,44.18
2022-11-16T00:04:45.640Z,44.08
2022-11-16T00:07:12.528Z,45.10
2022-11-16T00:09:39.475Z,44.22
2022-11-16T00:12:07.282Z,44.04
2022-11-16T00:14:35.018Z,44.19
2022-11-16T00:17:02.035Z,44.07
2022-11-16T00:19:29.157Z,44.17
2022-11-16T00:21:56.076Z,44.35
2022-11-16T00:24:23.416Z,44.20
2022-11-16T00:26:50.561Z,44.06
2022-11-16T00:29:20.079Z,44.30
2022-11-16T00:31:47.108Z,44.02
2022-11-16T00:34:14.143Z,44.29
2022-11-16T00:36:41.018Z,44.09
2022-11-16T00:39:13.307Z,44.05
2022-11-16T00:41:40.805Z,44.24
2022-11-16T00:44:08.029Z,44.27
2022-11-16T00:46:34.855Z,44.28
2022-11-16T00:49:02.037Z,44.21
2022-11-16T00:51:29.248Z,44.07
2022-11-16T00:53:56.496Z,44.29
2022-11-16T00:56:23.408Z,43.97
2022-11-16T00:58:50.268Z,44.05
2022-11-16T01:01:17.303Z,43.96
2022-11-16T01:03:44.271Z,44.28
2022-11-16T01:06:13.028Z,44.23
2022-11-16T01:08:40.236Z,44.14
2022-11-16T01:11:26.139Z,44.10
2022-11-16T01:13:53.085Z,44.08
2022-11-16T01:16:21.050Z,44.29
2022-11-16T01:18:49.192Z,44.36
2022-11-16T01:21:16.644Z,44.59
2022-11-16T01:23:44.253Z,44.41
2022-11-16T01:26:11.127Z,45.03
2022-11-16T01:28:39.508Z,45.61
2022-11-16T01:31:08.239Z,45.66
2022-11-16T01:33:36.911Z,44.52
2022-11-16T01:36:08.171Z,44.67
2022-11-16T01:38:35.539Z,44.69
2022-11-16T01:41:02.793Z,44.57
2022-11-16T01:43:48.330Z,44.62
2022-11-16T01:46:15.641Z,44.40
2022-11-16T01:48:42.695Z,44.68
2022-11-16T01:51:09.576Z,45.48
2022-11-16T01:53:36.623Z,45.42
2022-11-16T01:56:03.995Z,45.20
2022-11-16T01:58:43.061Z,45.80
2022-11-16T02:01:25.523Z,45.58
2022-11-16T02:03:56.249Z,45.95
2022-11-16T02:06:23.318Z,45.83
2022-11-16T02:09:25.710Z,45.91
2022-11-16T02:12:06.504Z,45.41
2022-11-16T02:15:07.855Z,44.95
2022-11-16T02:17:47.316Z,44.93
2022-11-16T02:20:48.859Z,45.05
2022-11-16T02:23:21.875Z,44.86
2022-11-16T02:26:09.003Z,44.78
2022-11-16T02:29:15.413Z,44.69
2022-11-16T02:32:06.395Z,45.02
2022-11-16T02:34:53.061Z,44.68
2022-11-16T02:37:20.984Z,44.64
2022-11-16T02:39:49.257Z,44.53
2022-11-16T02:42:26.298Z,44.76
2022-11-16T02:44:53.282Z,44.75
2022-11-16T02:47:22.779Z,44.76
2022-11-16T02:49:56.522Z,44.92
2022-11-16T02:52:23.476Z,45.59
2022-11-16T02:54:50.291Z,45.13
2022-11-16T02:57:25.381Z,45.13
2022-11-16T02:59:53.462Z,45.28
2022-11-16T03:02:28.254Z,45.43
2022-11-16T03:04:59.704Z,45.93
2022-11-16T03:07:33.680Z,46.19
2022-11-16T03:10:00.715Z,45.71
2022-11-16T03:12:31.450Z,44.38
2022-11-16T03:15:00.091Z,44.83
2022-11-16T03:17:47.303Z,44.94
2022-11-16T03:20:16.402Z,44.53
2022-11-16T03:22:48.415Z,43.19
2022-11-16T03:25:18.479Z,42.89
2022-11-16T03:27:59.790Z,42.26
2022-11-16T03:30:27.962Z,41.94
2022-11-16T03:33:27.387Z,41.81
2022-11-16T03:36:01.613Z,41.98
2022-11-16T03:38:31.257Z,41.06
2022-11-16T03:41:01.254Z,40.57
2022-11-16T03:43:28.783Z,40.50
2022-11-16T03:45:55.672Z,40.06
2022-11-16T03:48:23.669Z,39.71
2022-11-16T03:50:50.742Z,39.47
2022-11-16T03:53:18.891Z,38.97
2022-11-16T03:55:49.830Z,38.85
2022-11-16T03:58:18.663Z,38.41
2022-11-16T04:00:45.820Z,38.46
2022-11-16T04:03:12.917Z,38.07
2022-11-16T04:05:58.689Z,37.86
2022-11-16T04:08:44.106Z,37.81
2022-11-16T04:11:34.027Z,37.57
2022-11-16T04:14:19.619Z,37.32
2022-11-16T04:17:05.213Z,37.13
2022-11-16T04:19:56.751Z,37.05
2022-11-16T04:22:46.760Z,37.89
2022-11-16T04:25:20.836Z,36.74
2022-11-16T04:28:06.383Z,36.44
2022-11-16T04:30:51.904Z,36.54
2022-11-16T04:33:38.178Z,37.02
2022-11-16T04:36:23.715Z,36.49
2022-11-16T04:38:50.635Z,36.04
2022-11-16T04:41:37.004Z,35.95
2022-11-16T04:44:03.949Z,35.85
2022-11-16T04:47:03.337Z,35.84
2022-11-16T04:49:30.408Z,35.40
2022-11-16T04:51:58.713Z,35.23
2022-11-16T04:54:26.146Z,34.74
2022-11-16T04:56:53.230Z,34.58
2022-11-16T04:59:21.018Z,34.41
2022-11-16T05:02:06.720Z,34.39
2022-11-16T05:04:33.877Z,33.40
2022-11-16T05:07:01.087Z,34.18
2022-11-16T05:09:28.108Z,34.52
2022-11-16T05:11:55.032Z,34.45
2022-11-16T05:14:22.212Z,34.25
2022-11-16T05:16:49.652Z,34.38
2022-11-16T05:19:35.989Z,34.05
2022-11-16T05:22:04.122Z,34.03
2022-11-16T05:24:33.865Z,34.17
2022-11-16T05:27:07.263Z,34.09
2022-11-16T05:29:35.259Z,34.32
2022-11-16T05:32:03.726Z,34.47
2022-11-16T05:34:31.700Z,34.47
2022-11-16T05:37:00.562Z,34.42
2022-11-16T05:39:29.731Z,34.32
2022-11-16T05:41:57.108Z,34.48
2022-11-16T05:44:24.323Z,34.43
2022-11-16T05:46:51.798Z,34.59
2022-11-16T05:49:20.243Z,34.26
2022-11-16T05:51:48.355Z,34.61
2022-11-16T05:54:20.279Z,34.28
2022-11-16T05:56:48.226Z,34.33
2022-11-16T05:59:17.464Z,34.23
2022-11-16T06:01:45.804Z,34.20
2022-11-16T06:04:13.007Z,34.03
2022-11-16T06:06:40.320Z,34.27
2022-11-16T06:09:07.921Z,33.95
2022-11-16T06:11:38.274Z,32.91
2022-11-16T06:14:06.294Z,33.90
2022-11-16T06:16:34.705Z,32.88
2022-11-16T06:19:05.321Z,33.75
2022-11-16T06:21:33.157Z,33.61
2022-11-16T06:24:05.868Z,33.60
2022-11-16T06:26:32.827Z,33.57
2022-11-16T06:28:59.933Z,33.93
2022-11-16T06:31:28.001Z,33.90
2022-11-16T06:33:55.461Z,33.79
2022-11-16T06:36:26.243Z,33.49
2022-11-16T06:38:53.677Z,33.59
2022-11-16T06:41:22.124Z,33.74
2022-11-16T06:43:50.538Z,33.47
2022-11-16T06:46:21.040Z,33.30
2022-11-16T06:48:48.523Z,33.63
2022-11-16T06:51:15.426Z,33.59
2022-11-16T06:53:42.749Z,33.59
2022-11-16T06:56:09.643Z,33.53
2022-11-16T06:58:43.045Z,33.41
2022-11-16T07:01:11.748Z,33.41
2022-11-16T07:03:41.061Z,33.20
2022-11-16T07:06:13.018Z,32.99
2022-11-16T07:08:42.671Z,33.23
2022-11-16T07:11:11.452Z,33.18
2022-11-16T07:13:38.627Z,33.12
2022-11-16T07:16:07.828Z,32.88
2022-11-16T07:18:35.984Z,33.15
2022-11-16T07:21:15.548Z,33.13
2022-11-16T07:23:43.969Z,32.64
2022-11-16T07:26:15.239Z,32.99
2022-11-16T07:28:53.451Z,32.59
2022-11-16T07:31:22.433Z,32.45
2022-11-16T07:34:10.360Z,32.65
2022-11-16T07:36:42.773Z,32.51
2022-11-16T07:39:10.767Z,32.59
2022-11-16T07:41:38.641Z,32.66
2022-11-16T07:44:25.815Z,32.20
2022-11-16T07:47:05.530Z,32.53
2022-11-16T07:49:34.048Z,32.31
2022-11-16T07:52:21.570Z,32.28
2022-11-16T07:55:10.216Z,32.03
2022-11-16T07:57:37.278Z,32.30
2022-11-16T08:00:07.408Z,32.24
2022-11-16T08:02:50.408Z,32.07
2022-11-16T08:05:20.020Z,32.25
2022-11-16T08:07:49.100Z,32.21
2022-11-16T08:10:17.137Z,31.93
2022-11-16T08:12:44.259Z,31.76
2022-11-16T08:15:11.728Z,31.99
2022-11-16T08:17:38.724Z,31.60
2022-11-16T08:20:08.439Z,31.76
2022-11-16T08:22:35.553Z,31.57
2022-11-16T08:25:02.818Z,31.88
2022-11-16T08:27:31.078Z,31.86
2022-11-16T08:29:58.133Z,31.35
2022-11-16T08:32:25.983Z,31.69
2022-11-16T08:34:54.206Z,29.99
2022-11-16T08:37:22.099Z,31.10
2022-11-16T08:39:49.241Z,31.32
2022-11-16T08:42:16.190Z,31.51
2022-11-16T08:44:46.715Z,31.20
2022-11-16T08:47:15.749Z,31.28
2022-11-16T08:49:52.104Z,31.32
2022-11-16T08:52:22.299Z,31.38
2022-11-16T08:54:50.946Z,31.90
2022-11-16T08:57:18.167Z,30.77
2022-11-16T08:59:48.399Z,30.32
2022-11-16T09:02:15.436Z,30.97
2022-11-16T09:04:44.767Z,31.06
2022-11-16T09:07:11.920Z,31.35
2022-11-16T09:09:43.380Z,31.53
2022-11-16T09:12:10.322Z,31.89
2022-11-16T09:14:37.325Z,31.89
2022-11-16T09:17:04.301Z,32.32
2022-11-16T09:19:31.192Z,32.27
2022-11-16T09:21:58.201Z,32.37
2022-11-16T09:24:25.053Z,32.59
2022-11-16T09:26:51.975Z,32.76
2022-11-16T09:29:19.016Z,32.58
2022-11-16T09:31:46.162Z,32.12
2022-11-16T09:34:13.109Z,32.35
2022-11-16T09:36:40.130Z,32.80
2022-11-16T09:42:01.801Z,33.21
2022-11-16T09:44:57.862Z,33.11
2022-11-16T09:47:36.225Z,33.23
2022-11-16T09:50:04.324Z,33.42
2022-11-16T09:52:44.792Z,33.68
2022-11-16T09:55:25.101Z,33.53
2022-11-16T09:57:53.759Z,33.92
2022-11-16T10:00:25.772Z,33.91
2022-11-16T10:03:06.544Z,33.98
2022-11-16T10:05:56.458Z,33.88
2022-11-16T10:08:28.429Z,34.08
2022-11-16T10:11:00.215Z,34.03
2022-11-16T10:13:34.965Z,34.18
2022-11-16T10:16:32.434Z,34.33
2022-11-16T10:19:05.833Z,34.47
2022-11-16T10:22:17.937Z,34.60
2022-11-16T10:24:58.025Z,34.56
2022-11-16T10:27:50.232Z,34.64
2022-11-16T10:30:20.824Z,34.92
2022-11-16T10:33:12.819Z,34.91
2022-11-16T10:35:48.305Z,34.95
2022-11-16T10:38:17.316Z,35.08
2022-11-16T10:40:46.450Z,35.13
2022-11-16T10:43:16.867Z,35.11
2022-11-16T10:45:45.957Z,35.37
2022-11-16T10:48:17.946Z,35.57
2022-11-16T10:50:46.931Z,35.34
2022-11-16T10:53:15.309Z,35.41
2022-11-16T10:55:42.380Z,35.33
2022-11-16T10:58:09.394Z,35.50
2022-11-16T11:00:48.122Z,35.43
2022-11-16T11:03:15.323Z,35.63
2022-11-16T11:05:52.518Z,34.17
2022-11-16T11:08:39.720Z,34.18
2022-11-16T11:11:25.519Z,34.45
2022-11-16T11:14:08.457Z,34.17
2022-11-16T11:16:35.535Z,34.39
2022-11-16T11:19:18.892Z,34.48
2022-11-16T11:21:45.961Z,34.44
2022-11-16T11:24:43.263Z,34.46
2022-11-16T11:27:04.784Z,34.32
2022-11-16T11:29:32.719Z,34.39
2022-11-16T11:32:07.447Z,34.48
2022-11-16T11:34:39.812Z,34.10
2022-11-16T11:37:07.240Z,34.39
2022-11-16T11:39:35.275Z,34.01
2022-11-16T11:42:09.383Z,34.06
2022-11-16T11:44:37.389Z,34.02
2022-11-16T11:47:57.262Z,33.51
2022-11-16T11:50:46.001Z,34.03
2022-11-16T11:53:29.287Z,34.39
2022-11-16T11:55:58.361Z,34.41
2022-11-16T11:58:35.690Z,34.29
2022-11-16T12:01:24.999Z,34.05
2022-11-16T12:04:34.548Z,34.10
2022-11-16T12:07:32.200Z,34.00
2022-11-16T12:10:20.260Z,34.17
2022-11-16T12:12:49.867Z,34.39
2022-11-16T12:15:51.561Z,34.15
2022-11-16T12:18:31.560Z,34.44
2022-11-16T12:21:27.953Z,34.21
2022-11-16T12:24:09.882Z,34.46
2022-11-16T12:26:52.827Z,34.34
2022-11-16T12:29:27.195Z,34.45
2022-11-16T12:31:54.052Z,34.28
2022-11-16T12:35:02.840Z,34.46
2022-11-16T12:37:39.441Z,34.52
2022-11-16T12:40:21.620Z,34.74
2022-11-16T12:43:03.795Z,34.54
2022-11-16T12:45:48.782Z,34.65
2022-11-16T12:48:21.619Z,34.55
2022-11-16T12:51:06.857Z,34.80
2022-11-16T12:53:47.312Z,34.87
2022-11-16T12:56:49.457Z,34.65
2022-11-16T12:59:25.681Z,34.82
2022-11-16T13:02:08.539Z,34.79
2022-11-16T13:04:41.592Z,34.78
2022-11-16T13:07:11.601Z,34.61
2022-11-16T13:09:47.492Z,34.33
2022-11-16T13:12:17.285Z,35.09
2022-11-16T13:14:48.212Z,34.81
2022-11-16T13:17:41.586Z,34.54
2022-11-16T13:20:33.041Z,34.64
2022-11-16T13:23:18.995Z,34.81
2022-11-16T13:25:59.904Z,34.51
2022-11-16T13:28:37.528Z,34.63
2022-11-16T13:31:20.884Z,34.80
2022-11-16T13:33:51.209Z,34.79
2022-11-16T13:36:43.554Z,34.66
2022-11-16T13:39:52.492Z,34.91
2022-11-16T13:42:19.430Z,34.67
2022-11-16T13:44:51.384Z,34.98
2022-11-16T13:47:24.818Z,34.98
2022-11-16T13:49:56.695Z,34.92
2022-11-16T13:52:28.740Z,35.13
2022-11-16T13:55:27.816Z,35.41
2022-11-16T13:57:55.412Z,35.23
2022-11-16T14:00:33.453Z,35.43
2022-11-16T14:03:15.642Z,34.97
2022-11-16T14:05:47.203Z,35.21
2022-11-16T14:08:20.090Z,35.12
2022-11-16T14:10:52.753Z,35.19
2022-11-16T14:13:39.696Z,35.10
2022-11-16T14:16:19.505Z,35.08
2022-11-16T14:18:53.266Z,35.27
2022-11-16T14:21:20.265Z,35.12
2022-11-16T14:24:14.884Z,34.98
2022-11-16T14:27:17.067Z,35.04
2022-11-16T14:30:19.628Z,35.05
2022-11-16T14:32:47.649Z,35.07
2022-11-16T14:35:37.306Z,34.96
2022-11-16T14:38:06.596Z,35.04
2022-11-16T14:40:41.910Z,34.85
2022-11-16T14:43:17.569Z,35.08
2022-11-16T14:45:47.471Z,35.21
2022-11-16T14:48:19.277Z,35.18
2022-11-16T14:51:07.593Z,35.23
2022-11-16T14:53:35.536Z,35.44
2022-11-16T14:56:13.047Z,35.27
2022-11-16T14:58:40.183Z,35.37
2022-11-16T15:01:11.838Z,35.55
2022-11-16T15:04:04.844Z,35.30
2022-11-16T15:06:58.178Z,35.66
2022-11-16T15:09:38.721Z,35.75
2022-11-16T15:12:25.224Z,35.79
2022-11-16T15:14:56.484Z,35.77
2022-11-16T15:17:30.128Z,35.92
2022-11-16T15:20:01.464Z,35.90
2022-11-16T15:22:32.216Z,36.04
2022-11-16T15:25:00.239Z,36.39
2022-11-16T15:27:41.142Z,36.43
2022-11-16T15:30:16.211Z,36.25
2022-11-16T15:32:46.631Z,36.23
2022-11-16T15:35:34.032Z,36.37
2022-11-16T15:38:22.751Z,36.39
2022-11-16T15:40:55.527Z,36.30
2022-11-16T15:43:24.531Z,36.57
2022-11-16T15:45:51.842Z,36.73
2022-11-16T15:48:22.987Z,36.70
2022-11-16T15:51:15.518Z,36.53
2022-11-16T15:53:43.958Z,36.72
2022-11-16T15:56:16.818Z,36.95
2022-11-16T15:58:43.749Z,37.05
2022-11-16T16:01:11.241Z,37.06
2022-11-16T16:03:38.462Z,37.21
2022-11-16T16:06:05.869Z,37.31
2022-11-16T16:08:33.427Z,37.11
2022-11-16T16:11:09.472Z,37.38
2022-11-16T16:13:41.575Z,37.35
2022-11-16T16:16:22.856Z,37.35
2022-11-16T16:18:49.915Z,37.41
2022-11-16T16:21:16.768Z,37.69
2022-11-16T16:23:45.619Z,37.68
2022-11-16T16:26:13.566Z,37.77
2022-11-16T16:28:40.397Z,37.82
2022-11-16T16:31:07.522Z,37.92
2022-11-16T16:33:34.663Z,37.78
2022-11-16T16:36:01.878Z,37.98
2022-11-16T16:38:29.214Z,37.93
2022-11-16T16:41:05.304Z,38.00
2022-11-16T16:43:32.549Z,38.23
2022-11-16T16:46:03.786Z,38.39
2022-11-16T16:48:30.632Z,38.44
2022-11-16T16:50:57.594Z,38.58
2022-11-16T16:53:24.526Z,38.44
2022-11-16T16:55:51.366Z,38.61
2022-11-16T16:58:18.753Z,38.49
2022-11-16T17:00:45.799Z,38.68
2022-11-16T17:03:12.653Z,38.61
2022-11-16T17:05:39.576Z,38.67
2022-11-16T17:08:06.442Z,38.69
2022-11-16T17:10:33.282Z,38.63
2022-11-16T17:13:03.090Z,38.75
2022-11-16T17:15:30.076Z,38.87
2022-11-16T17:17:58.281Z,38.91
2022-11-16T17:20:25.210Z,38.92
2022-11-16T17:22:52.027Z,39.01
2022-11-16T17:25:18.856Z,38.98
2022-11-16T17:27:45.706Z,39.11
2022-11-16T17:30:13.373Z,39.01
2022-11-16T17:32:40.199Z,39.00
2022-11-16T17:35:07.405Z,39.18
2022-11-16T17:37:34.203Z,39.18
2022-11-16T17:40:01.041Z,39.00
2022-11-16T17:42:27.891Z,39.05
2022-11-16T17:44:55.194Z,39.24
2022-11-16T17:47:22.202Z,39.27
2022-11-16T17:49:49.052Z,39.28
2022-11-16T17:52:15.890Z,39.48
2022-11-16T17:54:42.756Z,39.25
2022-11-16T17:57:09.687Z,39.45
2022-11-16T17:59:36.505Z,39.56
2022-11-16T18:02:03.301Z,39.57
2022-11-16T18:04:30.182Z,39.50
2022-11-16T18:06:57.171Z,39.60
2022-11-16T18:09:24.210Z,39.79
2022-11-16T18:11:51.062Z,39.81
2022-11-16T18:14:17.885Z,39.72
2022-11-16T18:16:44.773Z,39.85
2022-11-16T18:19:15.897Z,39.88
2022-11-16T18:21:42.849Z,39.81
2022-11-16T18:24:09.732Z,40.02
2022-11-16T18:26:36.719Z,40.06
2022-11-16T18:29:03.570Z,40.08
2022-11-16T18:31:32.911Z,39.86
2022-11-16T18:34:01.027Z,40.08
2022-11-16T18:36:27.885Z,40.15
2022-11-16T18:38:54.824Z,40.06
2022-11-16T18:41:24.096Z,40.10
2022-11-16T18:43:52.655Z,40.07
2022-11-16T18:46:20.553Z,40.05
2022-11-16T18:48:47.772Z,40.15
2022-11-16T18:51:15.179Z,40.05
2022-11-16T18:53:42.017Z,40.18
2022-11-16T18:56:08.995Z,40.28
2022-11-16T18:58:49.746Z,40.13
2022-11-16T19:01:18.546Z,40.52
2022-11-16T19:03:45.525Z,40.67
2022-11-16T19:06:12.408Z,40.34
2022-11-16T19:08:40.265Z,40.61
2022-11-16T19:11:08.975Z,40.60
2022-11-16T19:13:36.111Z,40.57
2022-11-16T19:16:03.289Z,40.52
2022-11-16T19:18:30.096Z,41.05
2022-11-16T19:21:14.142Z,40.92
2022-11-16T19:23:48.465Z,40.99
2022-11-16T19:26:16.178Z,41.00
2022-11-16T19:28:44.289Z,40.96
2022-11-16T19:31:12.780Z,40.92
2022-11-16T19:33:40.097Z,41.02
2022-11-16T19:36:11.029Z,41.15
2022-11-16T19:38:37.922Z,40.92
2022-11-16T19:41:05.553Z,41.21
2022-11-16T19:43:33.216Z,41.28
2022-11-16T19:46:04.173Z,41.29
2022-11-16T19:48:32.353Z,41.24
2022-11-16T19:51:05.469Z,41.44
2022-11-16T19:53:32.853Z,41.59
2022-11-16T19:55:59.898Z,41.44
2022-11-16T19:58:26.790Z,41.34
2022-11-16T20:01:00.453Z,41.53
2022-11-16T20:03:27.343Z,41.58
2022-11-16T20:05:54.287Z,41.43
2022-11-16T20:08:21.145Z,41.64
2022-11-16T20:10:47.980Z,41.36
2022-11-16T20:13:14.794Z,41.47
2022-11-16T20:15:41.664Z,41.53
2022-11-16T20:18:08.526Z,41.82
2022-11-16T20:20:35.335Z,41.52
2022-11-16T20:23:02.204Z,41.85
2022-11-16T20:25:29.532Z,41.33
2022-11-16T20:27:56.389Z,41.54
2022-11-16T20:30:23.263Z,41.66
2022-11-16T20:32:50.172Z,41.71
2022-11-16T20:35:19.223Z,41.70
2022-11-16T20:37:46.296Z,41.55
2022-11-16T20:40:13.742Z,41.97
2022-11-16T20:42:40.570Z,41.88
2022-11-16T20:45:08.242Z,41.87
2022-11-16T20:47:35.075Z,42.04
2022-11-16T20:50:03.191Z,41.81
2022-11-16T20:52:30.205Z,42.04
2022-11-16T20:54:57.035Z,42.03
2022-11-16T20:57:24.095Z,41.95
2022-11-16T20:59:50.977Z,41.94
2022-11-16T21:02:17.842Z,42.18
2022-11-16T21:04:44.649Z,42.19
2022-11-16T21:07:11.547Z,42.17
2022-11-16T21:09:58.362Z,42.16
2022-11-16T21:12:43.906Z,41.90
2022-11-16T21:15:10.897Z,41.99
2022-11-16T21:17:37.736Z,42.30
2022-11-16T21:20:26.321Z,42.14
2022-11-16T21:22:51.674Z,42.02
2022-11-16T21:25:18.548Z,42.47
2022-11-16T21:27:46.279Z,42.25
2022-11-16T21:30:13.753Z,42.41
2022-11-16T21:32:40.621Z,42.55
2022-11-16T21:35:07.802Z,42.49
2022-11-16T21:37:34.636Z,42.39
2022-11-16T21:40:01.559Z,42.72
2022-11-16T21:42:28.387Z,42.72
2022-11-16T21:44:55.202Z,42.44
2022-11-16T21:47:22.273Z,42.71
2022-11-16T21:50:16.714Z,42.47
2022-11-16T21:52:36.382Z,42.82
2022-11-16T21:55:03.299Z,42.69
2022-11-16T21:57:30.126Z,42.90
2022-11-16T21:59:57.028Z,42.63
2022-11-16T22:02:23.862Z,42.88
2022-11-16T22:05:23.206Z,42.77
2022-11-16T22:07:50.110Z,42.66
2022-11-16T22:10:17.349Z,42.89
2022-11-16T22:12:44.213Z,42.86
2022-11-16T22:15:11.186Z,42.77
2022-11-16T22:17:44.782Z,42.71
2022-11-16T22:20:11.764Z,42.54
2022-11-16T22:22:38.578Z,42.70
2022-11-16T22:25:06.306Z,42.71
2022-11-16T22:27:42.383Z,42.60
2022-11-16T22:30:19.364Z,42.77
2022-11-16T22:32:46.163Z,42.98
2022-11-16T22:35:13.050Z,42.85
2022-11-16T22:37:39.956Z,42.89
2022-11-16T22:40:07.254Z,43.04
2022-11-16T22:42:34.123Z,43.02
2022-11-16T22:45:01.005Z,42.79
2022-11-16T22:47:27.828Z,43.08
2022-11-16T22:49:54.693Z,42.95
2022-11-16T22:52:21.597Z,43.04
2022-11-16T22:54:48.527Z,43.21
2022-11-16T22:57:15.401Z,43.32
2022-11-16T22:59:42.264Z,43.21
2022-11-16T23:02:09.162Z,42.93
2022-11-16T23:04:36.072Z,42.95
2022-11-16T23:07:03.215Z,43.05
2022-11-16T23:09:32.013Z,43.08
2022-11-16T23:12:17.558Z,43.29
2022-11-16T23:15:03.157Z,43.36
2022-11-16T23:17:30.012Z,43.21
2022-11-16T23:20:17.760Z,43.19
2022-11-16T23:23:03.789Z,43.05
2022-11-16T23:26:00.245Z,43.37
2022-11-16T23:28:27.112Z,43.02
2022-11-16T23:30:54.048Z,42.96
2022-11-16T23:33:40.866Z,42.94
2022-11-16T23:36:08.142Z,42.96
2022-11-16T23:38:34.996Z,43.23
2022-11-16T23:41:21.807Z,43.27
2022-11-16T23:44:00.744Z,42.92
2022-11-16T23:46:28.975Z,43.23
2022-11-16T23:48:55.910Z,42.87
2022-11-16T23:51:23.515Z,43.13
2022-11-16T23:53:51.772Z,43.25
2022-11-16T23:56:19.667Z,43.18
2022-11-16T23:58:46.591Z,42.87
